EXS219Q EGNM-EGJJ
Flight info
| Callsign | EXS219Q |
|---|---|
| Flight time | 0h 56m |
| Altitude | 23000 |
| Route | POL DCT MCT DCT LISTO P18 STAFA L8 HON N859 CPT Y321 PEPIS/N0452F380 Q41 SAM N63 LELNA |
| Aircraft | B738/M-SDE2E3FGHIRWXY/LB1 |
Departure
| Time | 2026-05-06 16:42 |
|---|---|
| Airport | Leeds Bradford Airport (EGNM) |
Arrival
| Time | 2026-05-06 17:39 |
|---|---|
| Airport | Jersey Airport (EGJJ) |
| Time | Latitude | Longitude | Altitude | Speed | Heading |
|---|---|---|---|---|---|
| 2026-05-06 16:24 | 53.86880 | -1.65690 | 664 ft | 0 kts | 1° |
| 2026-05-06 16:30 | 53.86871 | -1.65690 | 664 ft | 3 kts | 1° |
| 2026-05-06 16:30 | 53.86850 | -1.65691 | 664 ft | 3 kts | 1° |
| 2026-05-06 16:31 | 53.86833 | -1.65691 | 664 ft | 3 kts | 345° |
| 2026-05-06 16:31 | 53.86819 | -1.65679 | 662 ft | 3 kts | 288° |
| 2026-05-06 16:31 | 53.86816 | -1.65647 | 662 ft | 3 kts | 271° |
| 2026-05-06 16:31 | 53.86816 | -1.65629 | 662 ft | 0 kts | 271° |
| 2026-05-06 16:38 | 53.86816 | -1.65655 | 661 ft | 8 kts | 270° |
| 2026-05-06 16:38 | 53.86812 | -1.65805 | 664 ft | 15 kts | 268° |
| 2026-05-06 16:38 | 53.86815 | -1.66000 | 665 ft | 17 kts | 271° |
| 2026-05-06 16:38 | 53.86858 | -1.66153 | 666 ft | 14 kts | 318° |
| 2026-05-06 16:39 | 53.86931 | -1.66266 | 665 ft | 14 kts | 315° |
| 2026-05-06 16:39 | 53.86982 | -1.66398 | 671 ft | 13 kts | 297° |
| 2026-05-06 16:39 | 53.86976 | -1.66540 | 672 ft | 13 kts | 232° |
| 2026-05-06 16:39 | 53.86990 | -1.66671 | 673 ft | 13 kts | 316° |
| 2026-05-06 16:40 | 53.87056 | -1.66774 | 677 ft | 14 kts | 316° |
| 2026-05-06 16:40 | 53.87139 | -1.66898 | 682 ft | 17 kts | 320° |
| 2026-05-06 16:40 | 53.87242 | -1.66996 | 687 ft | 17 kts | 356° |
| 2026-05-06 16:40 | 53.87352 | -1.66993 | 688 ft | 14 kts | 353° |
| 2026-05-06 16:41 | 53.87398 | -1.67110 | 684 ft | 14 kts | 249° |
| 2026-05-06 16:41 | 53.87326 | -1.67173 | 685 ft | 7 kts | 167° |
| 2026-05-06 16:41 | 53.87291 | -1.67134 | 684 ft | 0 kts | 137° |
| 2026-05-06 16:42 | 53.87235 | -1.67047 | 684 ft | 47 kts | 138° |
| 2026-05-06 16:42 | 53.86753 | -1.66306 | 667 ft | 139 kts | 137° |
| 2026-05-06 16:42 | 53.85840 | -1.65009 | 1012 ft | 190 kts | 139° |
| 2026-05-06 16:42 | 53.84805 | -1.63543 | 2175 ft | 194 kts | 135° |
| 2026-05-06 16:43 | 53.83818 | -1.61994 | 3259 ft | 192 kts | 133° |
| 2026-05-06 16:43 | 53.82790 | -1.60560 | 4249 ft | 194 kts | 151° |
| 2026-05-06 16:43 | 53.81913 | -1.60144 | 4883 ft | 197 kts | 175° |
| 2026-05-06 16:43 | 53.80199 | -1.61001 | 6140 ft | 198 kts | 216° |
| 2026-05-06 16:44 | 53.79530 | -1.62137 | 6505 ft | 207 kts | 237° |
| 2026-05-06 16:44 | 53.79029 | -1.64417 | 7005 ft | 214 kts | 258° |
| 2026-05-06 16:44 | 53.78752 | -1.67059 | 7065 ft | 243 kts | 261° |
| 2026-05-06 16:44 | 53.78478 | -1.69976 | 7049 ft | 254 kts | 261° |
| 2026-05-06 16:45 | 53.78092 | -1.74080 | 7042 ft | 274 kts | 261° |
| 2026-05-06 16:45 | 53.77884 | -1.76202 | 7022 ft | 279 kts | 261° |
| 2026-05-06 16:45 | 53.77560 | -1.79430 | 7046 ft | 277 kts | 261° |
| 2026-05-06 16:45 | 53.77235 | -1.82624 | 7051 ft | 274 kts | 261° |
| 2026-05-06 16:46 | 53.76913 | -1.85795 | 7053 ft | 274 kts | 261° |
| 2026-05-06 16:46 | 53.76590 | -1.88966 | 7025 ft | 274 kts | 261° |
| 2026-05-06 16:46 | 53.76266 | -1.92137 | 7026 ft | 273 kts | 261° |
| 2026-05-06 16:46 | 53.75941 | -1.95336 | 7032 ft | 273 kts | 260° |
| 2026-05-06 16:47 | 53.75607 | -1.98586 | 7036 ft | 273 kts | 261° |
| 2026-05-06 16:47 | 53.75291 | -2.01653 | 7033 ft | 273 kts | 261° |
| 2026-05-06 16:47 | 53.74964 | -2.04813 | 7029 ft | 273 kts | 261° |
| 2026-05-06 16:47 | 53.74500 | -2.07920 | 7014 ft | 275 kts | 243° |
| 2026-05-06 16:48 | 53.73251 | -2.10329 | 7114 ft | 275 kts | 213° |
| 2026-05-06 16:48 | 53.71491 | -2.11626 | 7693 ft | 279 kts | 196° |
| 2026-05-06 16:48 | 53.69590 | -2.12447 | 8567 ft | 284 kts | 195° |
| 2026-05-06 16:48 | 53.67649 | -2.13214 | 9489 ft | 287 kts | 194° |
| 2026-05-06 16:49 | 53.65679 | -2.13985 | 10308 ft | 294 kts | 194° |
| 2026-05-06 16:49 | 53.63610 | -2.14806 | 10603 ft | 319 kts | 194° |
| 2026-05-06 16:49 | 53.61370 | -2.15707 | 10889 ft | 341 kts | 195° |
| 2026-05-06 16:49 | 53.59026 | -2.16658 | 11551 ft | 349 kts | 195° |
| 2026-05-06 16:50 | 53.56652 | -2.17625 | 12383 ft | 352 kts | 195° |
| 2026-05-06 16:50 | 53.54261 | -2.18602 | 13230 ft | 356 kts | 195° |
| 2026-05-06 16:50 | 53.51842 | -2.19594 | 14011 ft | 360 kts | 195° |
| 2026-05-06 16:50 | 53.49397 | -2.20597 | 14741 ft | 364 kts | 196° |
| 2026-05-06 16:51 | 53.46927 | -2.21610 | 15492 ft | 367 kts | 196° |
| 2026-05-06 16:51 | 53.44436 | -2.22630 | 16232 ft | 370 kts | 196° |
| 2026-05-06 16:51 | 53.41919 | -2.23660 | 16970 ft | 374 kts | 196° |
| 2026-05-06 16:51 | 53.39384 | -2.24694 | 17687 ft | 377 kts | 196° |
| 2026-05-06 16:52 | 53.36792 | -2.25597 | 18383 ft | 383 kts | 189° |
| 2026-05-06 16:52 | 53.34112 | -2.25742 | 18998 ft | 389 kts | 178° |
| 2026-05-06 16:52 | 53.31413 | -2.25108 | 19627 ft | 394 kts | 172° |
| 2026-05-06 16:52 | 53.28709 | -2.24258 | 20255 ft | 397 kts | 171° |
| 2026-05-06 16:53 | 53.25984 | -2.23384 | 20857 ft | 400 kts | 172° |
| 2026-05-06 16:53 | 53.23232 | -2.22529 | 21458 ft | 403 kts | 172° |
| 2026-05-06 16:53 | 53.20465 | -2.21700 | 22032 ft | 407 kts | 172° |
| 2026-05-06 16:53 | 53.17670 | -2.20879 | 22607 ft | 410 kts | 172° |
| 2026-05-06 16:54 | 53.14846 | -2.20139 | 23169 ft | 412 kts | 177° |
| 2026-05-06 16:54 | 53.11981 | -2.20084 | 23691 ft | 412 kts | 187° |
| 2026-05-06 16:54 | 53.09123 | -2.20584 | 24188 ft | 413 kts | 189° |
| 2026-05-06 16:54 | 53.06258 | -2.21115 | 24657 ft | 415 kts | 188° |
| 2026-05-06 16:55 | 53.03374 | -2.21602 | 25117 ft | 418 kts | 188° |
| 2026-05-06 16:55 | 53.00466 | -2.22060 | 25574 ft | 420 kts | 188° |
| 2026-05-06 16:55 | 52.97545 | -2.22510 | 26006 ft | 423 kts | 188° |
| 2026-05-06 16:55 | 52.94606 | -2.22967 | 26456 ft | 425 kts | 188° |
| 2026-05-06 16:56 | 52.91656 | -2.23428 | 26902 ft | 427 kts | 188° |
| 2026-05-06 16:56 | 52.88683 | -2.23704 | 27300 ft | 432 kts | 179° |
| 2026-05-06 16:56 | 52.85695 | -2.22838 | 27692 ft | 440 kts | 165° |
| 2026-05-06 16:56 | 52.82869 | -2.20778 | 28114 ft | 447 kts | 150° |
| 2026-05-06 16:57 | 52.80291 | -2.17855 | 28520 ft | 451 kts | 147° |
| 2026-05-06 16:57 | 52.77739 | -2.14807 | 28880 ft | 454 kts | 146° |
| 2026-05-06 16:57 | 52.75177 | -2.11740 | 29212 ft | 457 kts | 147° |
| 2026-05-06 16:57 | 52.72617 | -2.08704 | 29555 ft | 459 kts | 147° |
| 2026-05-06 16:58 | 52.69976 | -2.05607 | 29935 ft | 461 kts | 147° |
| 2026-05-06 16:58 | 52.67377 | -2.02589 | 30240 ft | 463 kts | 148° |
| 2026-05-06 16:58 | 52.64738 | -1.99545 | 30504 ft | 465 kts | 148° |
| 2026-05-06 16:58 | 52.62075 | -1.96484 | 30847 ft | 465 kts | 148° |
| 2026-05-06 16:59 | 52.59422 | -1.93438 | 31269 ft | 463 kts | 148° |
| 2026-05-06 16:59 | 52.56781 | -1.90410 | 31691 ft | 462 kts | 148° |
| 2026-05-06 16:59 | 52.54157 | -1.87408 | 32066 ft | 461 kts | 148° |
| 2026-05-06 16:59 | 52.51490 | -1.84360 | 32418 ft | 461 kts | 148° |
| 2026-05-06 17:00 | 52.48855 | -1.81350 | 32778 ft | 461 kts | 147° |
| 2026-05-06 17:00 | 52.46226 | -1.78346 | 33172 ft | 459 kts | 148° |
| 2026-05-06 17:00 | 52.43611 | -1.75372 | 33540 ft | 458 kts | 148° |
| 2026-05-06 17:00 | 52.40987 | -1.72392 | 33869 ft | 458 kts | 148° |
| 2026-05-06 17:01 | 52.38367 | -1.69420 | 34188 ft | 458 kts | 148° |
| 2026-05-06 17:01 | 52.35672 | -1.66663 | 34443 ft | 456 kts | 155° |
| 2026-05-06 17:01 | 52.32763 | -1.64644 | 34659 ft | 452 kts | 165° |
| 2026-05-06 17:01 | 52.29764 | -1.63099 | 34923 ft | 452 kts | 166° |
| 2026-05-06 17:02 | 52.26758 | -1.61593 | 35139 ft | 453 kts | 166° |
| 2026-05-06 17:02 | 52.23739 | -1.60079 | 35368 ft | 453 kts | 165° |
| 2026-05-06 17:02 | 52.20725 | -1.58551 | 35617 ft | 454 kts | 165° |
| 2026-05-06 17:02 | 52.17702 | -1.57001 | 35874 ft | 454 kts | 165° |
| 2026-05-06 17:03 | 52.14693 | -1.55446 | 36103 ft | 454 kts | 165° |
| 2026-05-06 17:03 | 52.11718 | -1.53904 | 36329 ft | 455 kts | 165° |
| 2026-05-06 17:03 | 52.08658 | -1.52317 | 36566 ft | 455 kts | 165° |
| 2026-05-06 17:03 | 52.05677 | -1.50773 | 36796 ft | 455 kts | 165° |
| 2026-05-06 17:04 | 52.02653 | -1.49209 | 36990 ft | 456 kts | 165° |
| 2026-05-06 17:04 | 51.99631 | -1.47650 | 37238 ft | 455 kts | 165° |
| 2026-05-06 17:04 | 51.96613 | -1.46094 | 37472 ft | 455 kts | 165° |
| 2026-05-06 17:04 | 51.93594 | -1.44541 | 37691 ft | 455 kts | 165° |
| 2026-05-06 17:05 | 51.90572 | -1.42990 | 37903 ft | 456 kts | 165° |
| 2026-05-06 17:05 | 51.84496 | -1.39878 | 37990 ft | 460 kts | 165° |
| 2026-05-06 17:06 | 51.78420 | -1.36771 | 37977 ft | 456 kts | 165° |
| 2026-05-06 17:06 | 51.72382 | -1.33710 | 37989 ft | 452 kts | 165° |
| 2026-05-06 17:07 | 51.66427 | -1.30715 | 37990 ft | 450 kts | 165° |
| 2026-05-06 17:07 | 51.60462 | -1.27701 | 37991 ft | 449 kts | 165° |
| 2026-05-06 17:08 | 51.54508 | -1.24679 | 37993 ft | 449 kts | 165° |
| 2026-05-06 17:08 | 51.48459 | -1.22251 | 37992 ft | 447 kts | 176° |
| 2026-05-06 17:09 | 51.42260 | -1.22415 | 38001 ft | 446 kts | 186° |
| 2026-05-06 17:09 | 51.36023 | -1.23035 | 37992 ft | 449 kts | 185° |
| 2026-05-06 17:10 | 51.29762 | -1.23536 | 37972 ft | 451 kts | 185° |
| 2026-05-06 17:10 | 51.23477 | -1.24074 | 37978 ft | 453 kts | 185° |
| 2026-05-06 17:11 | 51.17237 | -1.25233 | 37982 ft | 450 kts | 196° |
| 2026-05-06 17:11 | 51.11192 | -1.27868 | 37998 ft | 451 kts | 197° |
| 2026-05-06 17:12 | 51.05132 | -1.30488 | 37988 ft | 451 kts | 197° |
| 2026-05-06 17:12 | 50.99085 | -1.33011 | 37570 ft | 456 kts | 197° |
| 2026-05-06 17:12 | 50.96029 | -1.34325 | 37071 ft | 452 kts | 200° |
| 2026-05-06 17:13 | 50.93125 | -1.36189 | 36518 ft | 447 kts | 208° |
| 2026-05-06 17:13 | 50.90363 | -1.38437 | 35959 ft | 446 kts | 209° |
| 2026-05-06 17:13 | 50.87611 | -1.40715 | 35329 ft | 446 kts | 209° |
| 2026-05-06 17:13 | 50.84859 | -1.42973 | 34749 ft | 445 kts | 209° |
| 2026-05-06 17:14 | 50.82114 | -1.45194 | 34322 ft | 441 kts | 208° |
| 2026-05-06 17:14 | 50.79387 | -1.47377 | 33860 ft | 437 kts | 208° |
| 2026-05-06 17:14 | 50.76722 | -1.49497 | 33357 ft | 434 kts | 208° |
| 2026-05-06 17:14 | 50.74042 | -1.51625 | 32908 ft | 429 kts | 208° |
| 2026-05-06 17:15 | 50.71389 | -1.53727 | 32471 ft | 425 kts | 208° |
| 2026-05-06 17:15 | 50.68769 | -1.55798 | 32027 ft | 421 kts | 208° |
| 2026-05-06 17:15 | 50.66194 | -1.57828 | 31610 ft | 417 kts | 208° |
| 2026-05-06 17:15 | 50.63607 | -1.59866 | 31183 ft | 413 kts | 208° |
| 2026-05-06 17:16 | 50.61043 | -1.61886 | 30760 ft | 410 kts | 208° |
| 2026-05-06 17:16 | 50.58505 | -1.63885 | 30361 ft | 407 kts | 208° |
| 2026-05-06 17:16 | 50.55982 | -1.65869 | 29951 ft | 404 kts | 208° |
| 2026-05-06 17:16 | 50.53480 | -1.67834 | 29487 ft | 400 kts | 208° |
| 2026-05-06 17:17 | 50.51002 | -1.69778 | 29073 ft | 395 kts | 208° |
| 2026-05-06 17:17 | 50.48551 | -1.71700 | 28666 ft | 391 kts | 208° |
| 2026-05-06 17:17 | 50.46128 | -1.73598 | 28240 ft | 388 kts | 208° |
| 2026-05-06 17:17 | 50.43726 | -1.75476 | 27831 ft | 384 kts | 208° |
| 2026-05-06 17:18 | 50.41339 | -1.77342 | 27425 ft | 381 kts | 208° |
| 2026-05-06 17:18 | 50.38975 | -1.79187 | 27008 ft | 378 kts | 208° |
| 2026-05-06 17:18 | 50.37425 | -1.80396 | 26761 ft | 376 kts | 208° |
| 2026-05-06 17:18 | 50.34332 | -1.82806 | 26228 ft | 372 kts | 208° |
| 2026-05-06 17:19 | 50.32020 | -1.84603 | 25828 ft | 370 kts | 208° |
| 2026-05-06 17:19 | 50.29722 | -1.86389 | 25448 ft | 367 kts | 208° |
| 2026-05-06 17:19 | 50.27439 | -1.88161 | 25068 ft | 365 kts | 208° |
| 2026-05-06 17:19 | 50.25907 | -1.89349 | 24807 ft | 364 kts | 208° |
| 2026-05-06 17:20 | 50.23643 | -1.91104 | 24424 ft | 362 kts | 208° |
| 2026-05-06 17:20 | 50.21389 | -1.92848 | 24044 ft | 360 kts | 208° |
| 2026-05-06 17:20 | 50.19144 | -1.94584 | 23671 ft | 359 kts | 208° |
| 2026-05-06 17:20 | 50.16908 | -1.96311 | 23230 ft | 357 kts | 208° |
| 2026-05-06 17:21 | 50.14714 | -1.98004 | 22807 ft | 355 kts | 208° |
| 2026-05-06 17:21 | 50.12507 | -1.99706 | 22423 ft | 353 kts | 208° |
| 2026-05-06 17:21 | 50.10313 | -2.01395 | 22035 ft | 350 kts | 208° |
| 2026-05-06 17:21 | 50.08140 | -2.03067 | 21661 ft | 347 kts | 208° |
| 2026-05-06 17:22 | 50.05983 | -2.04726 | 21291 ft | 345 kts | 208° |
| 2026-05-06 17:22 | 50.03836 | -2.06376 | 20919 ft | 343 kts | 207° |
| 2026-05-06 17:22 | 50.01702 | -2.08012 | 20548 ft | 342 kts | 208° |
| 2026-05-06 17:22 | 49.99535 | -2.09672 | 20206 ft | 356 kts | 207° |
| 2026-05-06 17:23 | 49.98627 | -2.10360 | 20055 ft | 362 kts | 206° |
| 2026-05-06 17:23 | 49.97066 | -2.11292 | 19761 ft | 370 kts | 197° |
| 2026-05-06 17:23 | 49.94545 | -2.12214 | 19336 ft | 373 kts | 193° |
| 2026-05-06 17:23 | 49.92004 | -2.12998 | 18898 ft | 372 kts | 192° |
| 2026-05-06 17:24 | 49.89469 | -2.13773 | 18470 ft | 371 kts | 193° |
| 2026-05-06 17:24 | 49.86953 | -2.14568 | 18002 ft | 368 kts | 193° |
| 2026-05-06 17:24 | 49.84459 | -2.15384 | 17536 ft | 364 kts | 193° |
| 2026-05-06 17:24 | 49.81993 | -2.16209 | 17094 ft | 361 kts | 193° |
| 2026-05-06 17:25 | 49.79552 | -2.17035 | 16682 ft | 357 kts | 193° |
| 2026-05-06 17:25 | 49.77144 | -2.17853 | 16259 ft | 354 kts | 193° |
| 2026-05-06 17:25 | 49.74748 | -2.18665 | 15853 ft | 351 kts | 193° |
| 2026-05-06 17:25 | 49.72372 | -2.19468 | 15448 ft | 348 kts | 194° |
| 2026-05-06 17:26 | 49.70022 | -2.20294 | 15050 ft | 345 kts | 195° |
| 2026-05-06 17:26 | 49.67717 | -2.21268 | 14661 ft | 342 kts | 197° |
| 2026-05-06 17:26 | 49.65437 | -2.22302 | 14269 ft | 341 kts | 198° |
| 2026-05-06 17:26 | 49.63169 | -2.23343 | 13879 ft | 339 kts | 198° |
| 2026-05-06 17:27 | 49.60909 | -2.24377 | 13446 ft | 338 kts | 197° |
| 2026-05-06 17:27 | 49.58660 | -2.25395 | 13028 ft | 336 kts | 197° |
| 2026-05-06 17:27 | 49.56426 | -2.26398 | 12624 ft | 334 kts | 198° |
| 2026-05-06 17:27 | 49.54199 | -2.27394 | 12233 ft | 332 kts | 197° |
| 2026-05-06 17:28 | 49.51992 | -2.28378 | 11850 ft | 329 kts | 197° |
| 2026-05-06 17:28 | 49.49794 | -2.29354 | 11460 ft | 327 kts | 197° |
| 2026-05-06 17:28 | 49.47643 | -2.30309 | 11078 ft | 316 kts | 198° |
| 2026-05-06 17:28 | 49.45564 | -2.31229 | 10722 ft | 306 kts | 197° |
| 2026-05-06 17:29 | 49.43549 | -2.32121 | 10370 ft | 296 kts | 198° |
| 2026-05-06 17:29 | 49.41594 | -2.32985 | 10033 ft | 288 kts | 198° |
| 2026-05-06 17:29 | 49.39689 | -2.33827 | 9696 ft | 282 kts | 198° |
| 2026-05-06 17:29 | 49.37840 | -2.34644 | 9361 ft | 280 kts | 198° |
| 2026-05-06 17:30 | 49.35990 | -2.35461 | 9024 ft | 272 kts | 198° |
| 2026-05-06 17:30 | 49.34195 | -2.36253 | 8705 ft | 265 kts | 198° |
| 2026-05-06 17:30 | 49.32446 | -2.37024 | 8389 ft | 258 kts | 198° |
| 2026-05-06 17:30 | 49.30738 | -2.37776 | 8082 ft | 252 kts | 198° |
| 2026-05-06 17:31 | 49.29076 | -2.38507 | 7788 ft | 246 kts | 198° |
| 2026-05-06 17:31 | 49.27449 | -2.39223 | 7425 ft | 243 kts | 197° |
| 2026-05-06 17:31 | 49.25797 | -2.39949 | 6849 ft | 248 kts | 197° |
| 2026-05-06 17:31 | 49.24142 | -2.40674 | 6269 ft | 247 kts | 197° |
| 2026-05-06 17:32 | 49.22447 | -2.41111 | 5525 ft | 251 kts | 175° |
| 2026-05-06 17:32 | 49.20737 | -2.40583 | 4846 ft | 251 kts | 173° |
| 2026-05-06 17:32 | 49.19013 | -2.40666 | 4301 ft | 244 kts | 185° |
| 2026-05-06 17:32 | 49.17335 | -2.40871 | 3773 ft | 239 kts | 185° |
| 2026-05-06 17:33 | 49.15689 | -2.41067 | 3264 ft | 235 kts | 184° |
| 2026-05-06 17:33 | 49.14106 | -2.41277 | 3031 ft | 219 kts | 188° |
| 2026-05-06 17:33 | 49.12810 | -2.42171 | 2977 ft | 197 kts | 224° |
| 2026-05-06 17:33 | 49.12181 | -2.43937 | 2755 ft | 189 kts | 263° |
| 2026-05-06 17:34 | 49.12430 | -2.45819 | 2549 ft | 179 kts | 304° |
| 2026-05-06 17:34 | 49.13396 | -2.46925 | 2330 ft | 177 kts | 346° |
| 2026-05-06 17:34 | 49.14581 | -2.46753 | 2120 ft | 174 kts | 28° |
| 2026-05-06 17:34 | 49.15635 | -2.45899 | 2043 ft | 176 kts | 28° |
| 2026-05-06 17:35 | 49.16715 | -2.45039 | 2006 ft | 174 kts | 28° |
| 2026-05-06 17:35 | 49.17806 | -2.44166 | 2014 ft | 181 kts | 29° |
| 2026-05-06 17:35 | 49.18727 | -2.42927 | 2015 ft | 175 kts | 65° |
| 2026-05-06 17:36 | 49.19170 | -2.39194 | 2002 ft | 181 kts | 82° |
| 2026-05-06 17:36 | 49.19328 | -2.37310 | 1986 ft | 174 kts | 82° |
| 2026-05-06 17:36 | 49.19474 | -2.35529 | 1974 ft | 164 kts | 82° |
| 2026-05-06 17:36 | 49.19614 | -2.33819 | 1998 ft | 161 kts | 82° |
| 2026-05-06 17:37 | 49.19755 | -2.32107 | 1820 ft | 164 kts | 82° |
| 2026-05-06 17:37 | 49.19896 | -2.30394 | 1615 ft | 161 kts | 82° |
| 2026-05-06 17:37 | 49.20031 | -2.28759 | 1411 ft | 146 kts | 83° |
| 2026-05-06 17:37 | 49.20153 | -2.27297 | 1199 ft | 135 kts | 82° |
| 2026-05-06 17:38 | 49.20271 | -2.25906 | 1031 ft | 131 kts | 81° |
| 2026-05-06 17:38 | 49.20390 | -2.24525 | 882 ft | 133 kts | 82° |
| 2026-05-06 17:38 | 49.20498 | -2.23107 | 677 ft | 134 kts | 82° |
| 2026-05-06 17:38 | 49.20617 | -2.21706 | 492 ft | 133 kts | 82° |
| 2026-05-06 17:39 | 49.20737 | -2.20298 | 290 ft | 130 kts | 80° |
| 2026-05-06 17:39 | 49.20825 | -2.19247 | 285 ft | 55 kts | 83° |
| 2026-05-06 17:39 | 49.20868 | -2.18725 | 282 ft | 31 kts | 83° |
| 2026-05-06 17:39 | 49.20887 | -2.18500 | 280 ft | 10 kts | 83° |
| 2026-05-06 17:40 | 49.20867 | -2.18404 | 283 ft | 10 kts | 133° |
| 2026-05-06 17:40 | 49.20806 | -2.18383 | 283 ft | 9 kts | 194° |
| 2026-05-06 17:40 | 49.20753 | -2.18439 | 283 ft | 9 kts | 228° |
| 2026-05-06 17:40 | 49.20731 | -2.18541 | 283 ft | 13 kts | 263° |
| 2026-05-06 17:41 | 49.20715 | -2.18735 | 283 ft | 23 kts | 263° |
| 2026-05-06 17:41 | 49.20692 | -2.19010 | 283 ft | 27 kts | 263° |
| 2026-05-06 17:41 | 49.20682 | -2.19198 | 283 ft | 14 kts | 277° |
| 2026-05-06 17:41 | 49.20704 | -2.19336 | 283 ft | 14 kts | 286° |
| 2026-05-06 17:42 | 49.20704 | -2.19491 | 283 ft | 16 kts | 258° |
| 2026-05-06 17:42 | 49.20669 | -2.19641 | 286 ft | 15 kts | 228° |
| 2026-05-06 17:42 | 49.20620 | -2.19670 | 283 ft | 3 kts | 173° |
| 2026-05-06 17:42 | 49.20606 | -2.19665 | 283 ft | 2 kts | 162° |
| 2026-05-06 17:43 | 49.20594 | -2.19657 | 283 ft | 2 kts | 158° |
| 2026-05-06 17:43 | 49.20582 | -2.19650 | 286 ft | 2 kts | 158° |
| 2026-05-06 17:43 | 49.20571 | -2.19643 | 283 ft | 2 kts | 159° |
| 2026-05-06 17:43 | 49.20565 | -2.19639 | 283 ft | 0 kts | 158° |